Time;durP1;ratioP1;P1;durP2;ratioP2;P2;SDS_P1;SDS_P2;PMS_P1;PMS_P2;Temp;Humidity;BMP_temperature;BMP_pressure;BME280_temperature;BME280_humidity;BME280_pressure;Samples;Min_cycle;Max_cycle;Signal;HPM_P1;HPM_P2
2021/05/27 00:02:15;;;;;;;9.05;5.22;;;;;;;11.47;100.00;100083.50;5253096;28;20032;-77
2021/05/27 00:04:45;;;;;;;12.07;5.97;;;;;;;11.37;100.00;100090.06;5255202;28;20119;-77
2021/05/27 00:07:16;;;;;;;10.82;6.00;;;;;;;11.22;100.00;100088.16;5249115;28;20103;-77
2021/05/27 00:09:46;;;;;;;10.20;5.47;;;;;;;11.33;100.00;100081.53;5248533;28;20522;-77
2021/05/27 00:12:16;;;;;;;10.65;6.07;;;;;;;11.23;100.00;100090.72;5254111;28;20082;-77
2021/05/27 00:14:48;;;;;;;11.45;5.78;;;;;;;11.27;100.00;100083.59;5255067;28;20035;-77
2021/05/27 00:17:19;;;;;;;11.32;5.97;;;;;;;11.26;100.00;100087.13;5254993;28;20028;-77
2021/05/27 00:19:49;;;;;;;8.48;5.30;;;;;;;11.23;100.00;100098.56;5253860;28;20424;-77
2021/05/27 00:22:19;;;;;;;8.80;5.43;;;;;;;11.38;100.00;100086.53;5254887;28;20032;-77
2021/05/27 00:24:50;;;;;;;9.40;5.85;;;;;;;11.24;100.00;100083.75;5243056;28;20294;-77
2021/05/27 00:27:20;;;;;;;8.50;5.47;;;;;;;11.38;100.00;100082.16;5251328;28;20795;-75
2021/05/27 00:29:51;;;;;;;10.25;6.10;;;;;;;11.40;100.00;100084.69;5258659;28;20024;-76
2021/05/27 00:32:21;;;;;;;7.07;5.22;;;;;;;11.42;100.00;100085.50;5256384;28;20482;-76
2021/05/27 00:34:51;;;;;;;12.77;5.82;;;;;;;11.14;100.00;100083.28;5259135;28;20017;-78
2021/05/27 00:37:22;;;;;;;6.22;4.85;;;;;;;11.20;100.00;100082.16;5255799;28;20095;-76
2021/05/27 00:39:52;;;;;;;9.02;5.22;;;;;;;10.98;100.00;100091.03;5258912;28;20022;-76
2021/05/27 00:42:22;;;;;;;10.10;5.07;;;;;;;11.06;100.00;100092.41;5259548;28;20040;-77
2021/05/27 00:45:01;;;;;;;7.95;5.10;;;;;;;11.07;100.00;100089.72;5242867;28;20073;-76
2021/05/27 00:47:32;;;;;;;7.07;4.72;;;;;;;11.08;100.00;100091.41;5244926;28;20032;-75
2021/05/27 00:50:04;;;;;;;10.23;4.82;;;;;;;11.14;100.00;100100.75;5248228;28;20713;-76
2021/05/27 00:52:35;;;;;;;11.43;4.78;;;;;;;11.05;100.00;100094.19;5247742;28;20035;-76
2021/05/27 00:55:06;;;;;;;9.70;4.85;;;;;;;11.12;100.00;100100.81;5249532;28;20020;-75
2021/05/27 00:57:37;;;;;;;9.38;4.60;;;;;;;11.13;100.00;100102.50;5249537;28;20032;-76
2021/05/27 01:00:12;;;;;;;10.40;4.50;;;;;;;11.03;100.00;100098.63;5249881;28;20040;-77
2021/05/27 01:02:42;;;;;;;9.15;4.18;;;;;;;11.16;100.00;100102.41;5249649;28;20058;-77
2021/05/27 01:05:15;;;;;;;6.88;4.20;;;;;;;11.30;100.00;100094.75;5259033;28;20060;-76
2021/05/27 01:07:46;;;;;;;9.30;3.88;;;;;;;11.22;100.00;100096.00;5254411;28;20030;-76
2021/05/27 01:10:16;;;;;;;5.03;3.55;;;;;;;11.14;100.00;100098.16;5255379;28;20028;-76
2021/05/27 01:12:47;;;;;;;6.10;3.60;;;;;;;11.13;100.00;100102.50;5255879;28;20020;-76
2021/05/27 01:15:29;;;;;;;4.90;3.33;;;;;;;11.23;100.00;100093.34;5256671;28;20036;-77
2021/05/27 01:18:15;;;;;;;5.18;3.03;;;;;;;11.31;100.00;100100.84;5258500;28;20667;-75
2021/05/27 01:20:47;;;;;;;;;;;;;;;11.34;100.00;100105.94;5254332;28;20052;-75
2021/05/27 01:23:18;;;;;;;4.53;3.17;;;;;;;11.12;100.00;100103.44;5249607;28;20325;-75
2021/05/27 01:25:54;;;;;;;4.38;2.58;;;;;;;11.19;100.00;100104.88;5250929;28;20093;-75
2021/05/27 01:28:28;;;;;;;4.78;2.80;;;;;;;11.07;100.00;100100.19;5251678;28;20504;-75
2021/05/27 01:30:59;;;;;;;4.15;2.75;;;;;;;11.15;100.00;100105.06;5251258;28;20070;-75
2021/05/27 01:33:29;;;;;;;4.28;2.10;;;;;;;11.23;100.00;100101.19;5259500;28;20482;-76
2021/05/27 01:36:00;;;;;;;4.30;2.72;;;;;;;11.15;100.00;100100.69;5250455;28;20497;-76
2021/05/27 01:38:32;;;;;;;4.10;2.22;;;;;;;11.13;100.00;100101.69;5248523;28;20024;-75
2021/05/27 01:41:03;;;;;;;4.20;1.95;;;;;;;11.06;100.00;100102.84;5245516;28;20044;-78
2021/05/27 01:43:34;;;;;;;3.08;2.20;;;;;;;11.09;100.00;100108.81;5251480;28;20370;-76
2021/05/27 01:46:04;;;;;;;4.65;2.38;;;;;;;11.03;100.00;100106.47;5249056;28;20054;-75
2021/05/27 01:48:34;;;;;;;3.10;2.35;;;;;;;11.10;100.00;100107.88;5253735;28;20024;-76
2021/05/27 01:51:05;;;;;;;7.57;2.25;;;;;;;11.17;100.00;100117.16;5248316;28;20032;-76
2021/05/27 01:53:35;;;;;;;4.25;2.05;;;;;;;11.19;100.00;100119.69;5250182;28;20088;-75
2021/05/27 01:56:05;;;;;;;3.47;2.08;;;;;;;11.27;100.00;100110.59;5248117;28;20047;-75
2021/05/27 01:58:36;;;;;;;2.95;1.98;;;;;;;11.22;100.00;100112.56;5256857;28;20150;-76
2021/05/27 02:01:07;;;;;;;3.78;1.77;;;;;;;11.29;100.00;100113.97;5266981;22;20041;-80
2021/05/27 02:03:38;;;;;;;3.15;1.90;;;;;;;11.28;98.82;100109.66;5256758;28;20075;-78
2021/05/27 02:06:09;;;;;;;3.03;1.80;;;;;;;11.29;99.71;100108.75;5254138;28;20051;-80
2021/05/27 02:09:07;;;;;;;3.25;1.90;;;;;;;11.31;99.58;100113.91;5261012;28;20046;-79
2021/05/27 02:11:29;;;;;;;3.95;1.88;;;;;;;11.18;99.77;100104.94;5251946;28;20093;-80
2021/05/27 02:14:00;;;;;;;2.80;1.63;;;;;;;11.40;98.54;100101.25;5258038;28;20572;-80
2021/05/27 02:16:30;;;;;;;2.88;1.70;;;;;;;11.29;99.28;100111.34;5255110;28;20496;-80
2021/05/27 02:19:01;;;;;;;2.67;1.70;;;;;;;11.26;99.10;100101.03;5247648;28;20039;-80
2021/05/27 02:21:31;;;;;;;1.90;1.50;;;;;;;11.33;99.25;100107.72;5244452;28;20095;-80
2021/05/27 02:24:04;;;;;;;3.75;1.73;;;;;;;11.24;98.94;100113.34;5234908;28;20677;-79
2021/05/27 02:26:34;;;;;;;3.83;1.90;;;;;;;11.18;99.80;100108.41;5264592;28;20097;-78
2021/05/27 02:29:05;;;;;;;3.08;1.80;;;;;;;11.20;98.55;100109.19;5244823;28;20024;-80
2021/05/27 02:31:36;;;;;;;3.58;1.60;;;;;;;11.24;99.40;100109.91;5240205;28;20023;-79
2021/05/27 02:34:06;;;;;;;3.72;1.50;;;;;;;11.30;98.65;100105.22;5263237;28;20028;-79
2021/05/27 02:36:37;;;;;;;2.90;1.60;;;;;;;11.20;98.79;100111.78;5240017;28;20031;-79
2021/05/27 02:39:07;;;;;;;3.08;1.60;;;;;;;11.23;98.15;100108.16;5233800;28;20081;-80
2021/05/27 02:41:38;;;;;;;1.95;1.30;;;;;;;11.23;99.25;100108.16;5241675;28;20035;-79
2021/05/27 02:44:08;;;;;;;2.58;1.60;;;;;;;11.23;99.02;100111.66;5242609;28;20066;-79
2021/05/27 02:46:39;;;;;;;2.85;1.67;;;;;;;11.21;100.00;100112.63;5240333;28;20032;-80
2021/05/27 02:49:10;;;;;;;3.80;1.63;;;;;;;11.24;98.92;100109.91;5242587;28;20039;-80
2021/05/27 02:51:40;;;;;;;2.97;1.50;;;;;;;11.28;98.53;100114.91;5262121;28;20077;-80
2021/05/27 02:54:10;;;;;;;3.05;1.55;;;;;;;11.35;97.88;100113.72;5235001;28;20476;-79
2021/05/27 02:56:41;;;;;;;3.65;1.75;;;;;;;11.34;97.33;100117.25;5254666;28;20024;-78
2021/05/27 02:59:11;;;;;;;2.53;1.58;;;;;;;11.35;97.74;100121.56;5242850;28;20382;-81
2021/05/27 03:01:41;;;;;;;2.83;1.67;;;;;;;11.41;97.65;100118.66;5261673;28;20048;-79
2021/05/27 03:04:12;;;;;;;3.03;1.70;;;;;;;11.38;96.88;100118.81;5243311;28;20059;-79
2021/05/27 03:06:42;;;;;;;2.78;1.80;;;;;;;11.38;98.03;100117.94;5236514;28;20029;-78
2021/05/27 03:09:13;;;;;;;3.15;1.58;;;;;;;11.32;98.00;100118.22;5232831;28;20174;-80
2021/05/27 03:11:43;;;;;;;5.32;1.58;;;;;;;11.34;97.25;100125.09;5242057;28;20020;-79
2021/05/27 03:14:13;;;;;;;5.13;1.60;;;;;;;11.33;97.88;100123.41;5261292;28;20028;-79
2021/05/27 03:16:43;;;;;;;4.15;1.60;;;;;;;11.41;97.65;100131.72;5252266;28;20111;-79
2021/05/27 03:19:14;;;;;;;3.05;1.73;;;;;;;11.42;96.86;100122.97;5240461;28;20036;-80
2021/05/27 03:21:44;;;;;;;2.17;1.55;;;;;;;11.37;98.12;100122.34;5238326;28;20173;-81
2021/05/27 03:24:15;;;;;;;3.70;1.80;;;;;;;11.43;97.42;100118.59;5244238;28;20042;-80
2021/05/27 03:26:46;;;;;;;2.50;1.48;;;;;;;11.39;97.61;100125.72;5246171;28;20039;-80
2021/05/27 03:29:17;;;;;;;2.35;1.48;;;;;;;11.46;97.15;100127.13;5245979;28;20137;-79
2021/05/27 03:31:47;;;;;;;3.85;1.50;;;;;;;11.44;98.34;100133.38;5251301;28;20105;-78
2021/05/27 03:34:18;;;;;;;3.20;1.50;;;;;;;11.41;97.92;100130.91;5255845;28;20095;-79
2021/05/27 03:36:48;;;;;;;3.83;1.65;;;;;;;11.42;98.62;100125.59;5260814;28;20024;-80
2021/05/27 03:39:19;;;;;;;3.03;1.80;;;;;;;11.30;98.81;100125.31;5251777;28;20031;-79
2021/05/27 03:41:49;;;;;;;2.00;1.60;;;;;;;11.38;98.45;100126.66;5244870;28;20493;-81
2021/05/27 03:44:19;;;;;;;1.95;1.40;;;;;;;11.51;97.55;100125.16;5256259;28;20031;-79
2021/05/27 03:46:49;;;;;;;3.13;1.55;;;;;;;11.38;98.05;100131.88;5235254;28;20029;-80
2021/05/27 03:49:20;;;;;;;2.95;1.50;;;;;;;11.42;98.22;100136.03;5255591;28;20405;-78
2021/05/27 03:51:52;;;;;;;2.50;1.30;;;;;;;11.41;97.30;100134.34;5233392;28;20081;-79
2021/05/27 03:54:22;;;;;;;2.10;1.00;;;;;;;11.42;98.54;100132.59;5232645;28;20024;-78
2021/05/27 03:56:52;;;;;;;2.30;1.20;;;;;;;11.48;97.27;100130.53;5240843;28;20489;-78
2021/05/27 04:02:11;;;;;;;1.73;1.00;;;;;;;11.47;96.77;100139.28;5245924;28;20153;-79
2021/05/27 04:07:31;;;;;;;5.35;1.20;;;;;;;11.52;96.36;100137.34;5243484;28;20036;-78
2021/05/27 04:10:01;;;;;;;1.48;0.88;;;;;;;11.42;96.97;100132.59;5252732;28;20481;-79
2021/05/27 04:12:46;;;;;;;1.52;0.80;;;;;;;11.49;96.52;100142.72;5256259;28;20028;-80
2021/05/27 04:15:38;;;;;;;0.77;0.60;;;;;;;11.38;96.44;100141.47;5237652;28;20413;-80
2021/05/27 04:18:12;;;;;;;1.88;0.63;;;;;;;11.49;96.18;100137.47;5236992;28;20044;-80
2021/05/27 04:20:51;;;;;;;0.93;0.60;;;;;;;11.40;95.42;100143.13;5245387;28;20039;-80
2021/05/27 04:23:38;;;;;;;1.55;0.65;;;;;;;11.32;95.58;100145.25;5235766;28;20016;-80
2021/05/27 04:26:11;;;;;;;1.45;0.60;;;;;;;11.43;94.63;100142.16;5244761;28;20025;-78
2021/05/27 04:28:44;;;;;;;2.00;0.60;;;;;;;11.29;95.16;100147.16;5249101;28;20418;-80
2021/05/27 04:31:18;;;;;;;0.73;0.60;;;;;;;11.28;95.55;100150.69;5254145;28;20031;-80
2021/05/27 04:33:54;;;;;;;0.63;0.50;;;;;;;11.30;94.33;100151.47;5243225;28;20028;-80
2021/05/27 04:36:24;;;;;;;1.40;0.32;;;;;;;11.19;95.31;100154.56;5257256;28;20043;-80
2021/05/27 04:38:54;;;;;;;1.80;0.52;;;;;;;11.31;93.41;100147.91;5218191;28;20028;-80
2021/05/27 04:41:24;;;;;;;0.80;0.43;;;;;;;11.32;94.05;100158.34;5220548;28;20024;-80
2021/05/27 04:43:55;;;;;;;1.13;0.45;;;;;;;11.30;94.46;100154.91;5222453;28;20060;-80
2021/05/27 04:46:25;;;;;;;0.30;0.30;;;;;;;11.32;93.49;100154.84;5249258;28;20107;-80
2021/05/27 04:48:56;;;;;;;1.30;0.35;;;;;;;11.37;93.40;100164.19;5245857;28;20032;-79
2021/05/27 04:51:26;;;;;;;1.25;0.30;;;;;;;11.37;92.68;100177.28;5240255;28;20022;-79
2021/05/27 04:53:56;;;;;;;0.82;0.35;;;;;;;11.25;93.00;100169.97;5232187;28;20024;-80
2021/05/27 04:56:26;;;;;;;0.85;0.30;;;;;;;11.40;92.53;100179.75;5255859;28;20024;-79
2021/05/27 04:58:57;;;;;;;1.10;0.40;;;;;;;11.36;93.49;100182.56;5242207;28;20511;-80
2021/05/27 05:01:28;;;;;;;0.38;0.30;;;;;;;11.36;93.43;100188.66;5255984;28;20034;-79
2021/05/27 05:03:58;;;;;;;0.73;0.30;;;;;;;11.25;93.83;100190.91;5260976;28;20033;-81
2021/05/27 05:06:29;;;;;;;2.78;0.40;;;;;;;11.49;92.94;100187.19;5254695;28;20020;-80
2021/05/27 05:08:59;;;;;;;0.28;0.28;;;;;;;11.43;92.90;100200.53;5225398;28;20181;-80
2021/05/27 05:11:29;;;;;;;2.50;0.50;;;;;;;11.41;92.95;100191.09;5263352;28;20123;-78
2021/05/27 05:14:00;;;;;;;0.30;0.25;;;;;;;11.62;93.09;100190.97;5246163;28;20362;-79
2021/05/27 05:16:30;;;;;;;1.67;0.40;;;;;;;11.75;92.10;100186.03;5251246;28;20035;-81
2021/05/27 05:19:00;;;;;;;1.70;0.30;;;;;;;11.95;90.79;100193.81;5255746;28;20028;-80
2021/05/27 05:21:30;;;;;;;0.90;0.50;;;;;;;12.11;91.72;100189.53;5243402;28;20024;-78
2021/05/27 05:24:01;;;;;;;0.98;0.52;;;;;;;12.24;91.04;100198.47;5247074;28;20225;-80
2021/05/27 05:26:31;;;;;;;0.40;0.30;;;;;;;12.12;91.18;100192.06;5226203;28;20020;-80
2021/05/27 05:29:02;;;;;;;0.47;0.30;;;;;;;12.09;90.79;100189.59;5232040;28;20509;-80
2021/05/27 05:31:32;;;;;;;2.97;0.40;;;;;;;12.24;90.77;100193.25;5251835;28;20028;-80
2021/05/27 05:34:03;;;;;;;1.10;0.50;;;;;;;12.38;90.81;100186.44;5259212;28;20039;-79
2021/05/27 05:36:33;;;;;;;0.77;0.40;;;;;;;12.23;91.14;100184.56;5235979;28;20628;-79
2021/05/27 05:39:04;;;;;;;1.83;0.30;;;;;;;12.50;89.06;100182.34;5248141;28;20501;-79
2021/05/27 05:41:34;;;;;;;1.13;0.38;;;;;;;13.89;85.46;100174.94;5255436;28;20500;-80
2021/05/27 05:44:05;;;;;;;0.85;0.40;;;;;;;14.80;79.43;100180.09;5222942;28;20052;-80
2021/05/27 05:46:35;;;;;;;1.25;0.38;;;;;;;15.22;78.62;100191.56;5233991;28;20104;-80
2021/05/27 05:49:05;;;;;;;2.10;0.45;;;;;;;14.30;80.31;100183.97;5243300;28;20061;-80
2021/05/27 05:51:36;;;;;;;1.25;0.43;;;;;;;13.66;83.12;100185.81;5246394;28;20024;-79
2021/05/27 05:54:06;;;;;;;1.38;0.50;;;;;;;13.62;82.95;100192.19;5246785;28;20055;-79
2021/05/27 05:56:36;;;;;;;1.45;0.40;;;;;;;13.63;85.21;100183.38;5263216;28;20080;-80
2021/05/27 05:59:07;;;;;;;3.17;0.70;;;;;;;14.09;82.82;100193.06;5273633;28;20032;-80
2021/05/27 06:01:37;;;;;;;1.60;0.52;;;;;;;14.32;81.77;100192.63;5251626;28;20020;-79
2021/05/27 06:04:07;;;;;;;2.58;0.80;;;;;;;14.13;83.52;100192.81;5254962;28;20032;-80
2021/05/27 06:06:37;;;;;;;2.50;0.60;;;;;;;14.76;81.30;100194.38;5250281;28;20032;-79
2021/05/27 06:09:08;;;;;;;3.22;0.60;;;;;;;14.71;80.83;100190.31;5241554;28;20055;-80
2021/05/27 06:11:38;;;;;;;1.05;0.57;;;;;;;14.54;81.58;100187.81;5261729;28;20067;-80
2021/05/27 06:14:08;;;;;;;1.27;0.50;;;;;;;14.38;82.29;100192.25;5246210;28;20032;-79
2021/05/27 06:16:39;;;;;;;1.08;0.50;;;;;;;13.88;83.93;100196.88;5264077;28;20017;-80
2021/05/27 06:19:09;;;;;;;0.88;0.50;;;;;;;13.67;84.32;100201.50;5261399;28;20112;-80
2021/05/27 06:21:39;;;;;;;2.05;0.55;;;;;;;13.95;84.10;100206.09;5268865;28;20591;-80
2021/05/27 06:24:10;;;;;;;2.38;0.73;;;;;;;14.03;83.67;100206.50;5237310;28;20024;-80
2021/05/27 06:26:40;;;;;;;1.10;0.60;;;;;;;14.27;83.80;100207.81;5248107;28;20024;-80
2021/05/27 06:29:10;;;;;;;1.75;0.75;;;;;;;14.27;83.06;100218.34;5253384;28;20028;-80
2021/05/27 06:31:45;;;;;;;2.55;0.70;;;;;;;14.75;82.42;100210.28;5236055;28;20334;-80
2021/05/27 06:34:15;;;;;;;1.90;0.73;;;;;;;15.00;80.78;100220.09;5236222;28;20029;-81
2021/05/27 06:36:45;;;;;;;0.88;0.63;;;;;;;14.86;81.82;100224.50;5233867;28;20376;-80
2021/05/27 06:39:16;;;;;;;3.22;0.93;;;;;;;14.96;81.20;100223.00;5235912;28;20036;-80
2021/05/27 06:41:46;;;;;;;1.90;0.77;;;;;;;14.21;82.79;100230.03;5239721;28;20052;-80
2021/05/27 06:44:16;;;;;;;1.55;0.80;;;;;;;14.21;83.41;100221.28;5259209;28;20039;-80
2021/05/27 06:46:47;;;;;;;3.10;0.90;;;;;;;13.44;85.38;100224.66;5257359;28;20035;-80
2021/05/27 06:49:17;;;;;;;3.20;0.80;;;;;;;13.30;86.50;100225.41;5263164;28;20036;-80
2021/05/27 06:51:47;;;;;;;2.20;0.70;;;;;;;13.30;88.17;100225.41;5248618;28;20079;-80
2021/05/27 06:54:18;;;;;;;1.83;0.68;;;;;;;12.88;90.80;100228.47;5246067;28;20064;-80
2021/05/27 06:56:50;;;;;;;1.35;0.80;;;;;;;12.98;90.63;100228.81;5235913;28;20023;-79
2021/05/27 06:59:20;;;;;;;1.55;0.80;;;;;;;12.76;92.24;100229.94;5238341;28;20119;-80
2021/05/27 07:01:51;;;;;;;2.72;0.70;;;;;;;13.21;91.65;100219.78;5265695;28;20111;-80
2021/05/27 07:04:21;;;;;;;4.10;0.88;;;;;;;13.00;91.39;100228.72;5255652;28;20024;-80
2021/05/27 07:06:52;;;;;;;2.72;1.08;;;;;;;12.99;93.77;100234.91;5224731;28;20032;-80
2021/05/27 07:09:23;;;;;;;1.67;0.82;;;;;;;12.89;95.26;100233.66;5229100;28;20119;-81
2021/05/27 07:11:53;;;;;;;0.95;0.88;;;;;;;12.47;98.08;100245.41;5238547;28;20042;-80
2021/05/27 07:14:24;;;;;;;2.20;1.00;;;;;;;12.41;96.95;100243.06;5246027;28;20095;-80
2021/05/27 07:16:55;;;;;;;1.98;0.98;;;;;;;12.55;97.59;100244.13;5242901;28;20021;-80
2021/05/27 07:19:25;;;;;;;1.55;0.90;;;;;;;12.68;96.43;100242.59;5244690;28;20027;-80
2021/05/27 07:21:56;;;;;;;3.42;1.00;;;;;;;12.70;96.67;100243.38;5238007;28;20099;-80
2021/05/27 07:24:26;;;;;;;3.70;1.00;;;;;;;12.78;97.19;100241.19;5237979;28;20035;-79
2021/05/27 07:26:56;;;;;;;3.30;0.90;;;;;;;12.69;97.73;100256.53;5252812;28;20043;-80
2021/05/27 07:29:29;;;;;;;1.80;1.02;;;;;;;12.33;100.00;100253.06;5237654;28;20430;-79
2021/05/27 07:31:59;;;;;;;1.88;0.95;;;;;;;12.27;100.00;100256.84;5232701;28;20020;-79
2021/05/27 07:34:29;;;;;;;1.80;0.90;;;;;;;12.18;100.00;100259.03;5239424;28;20031;-80
2021/05/27 07:37:00;;;;;;;1.73;0.82;;;;;;;12.27;100.00;100262.06;5256968;28;20024;-80
2021/05/27 07:39:30;;;;;;;2.03;0.93;;;;;;;12.17;100.00;100266.06;5236791;28;20028;-79
2021/05/27 07:42:03;;;;;;;1.88;0.90;;;;;;;12.42;100.00;100263.97;5260264;28;20066;-81
2021/05/27 07:44:34;;;;;;;2.00;1.00;;;;;;;12.13;100.00;100261.88;5238764;28;20047;-80
2021/05/27 07:47:04;;;;;;;3.33;1.08;;;;;;;12.37;100.00;100271.22;5261163;28;20028;-79
2021/05/27 07:49:35;;;;;;;1.02;0.73;;;;;;;12.69;100.00;100262.66;5241543;28;20024;-80
2021/05/27 07:52:06;;;;;;;2.97;1.00;;;;;;;12.42;100.00;100270.97;5243429;28;20062;-78
2021/05/27 07:54:36;;;;;;;1.75;0.73;;;;;;;12.44;100.00;100277.00;5226246;28;20036;-80
2021/05/27 07:57:07;;;;;;;2.00;1.00;;;;;;;12.52;100.00;100262.63;5243155;28;20020;-81
2021/05/27 07:59:37;;;;;;;1.58;0.80;;;;;;;12.24;100.00;100269.22;5250967;28;20497;-80
2021/05/27 08:02:08;;;;;;;1.38;0.90;;;;;;;12.36;100.00;100272.13;5257131;28;20038;-80
2021/05/27 08:04:42;;;;;;;1.50;1.00;;;;;;;12.57;100.00;100273.72;5259237;28;20078;-78
2021/05/27 08:07:13;;;;;;;1.85;1.00;;;;;;;12.46;100.00;100290.91;5237447;28;20017;-80
2021/05/27 08:09:43;;;;;;;2.28;1.00;;;;;;;12.38;100.00;100287.78;5239896;28;20023;-80
2021/05/27 08:12:13;;;;;;;1.63;0.98;;;;;;;12.82;100.00;100282.06;5241078;28;20062;-81
2021/05/27 08:14:45;;;;;;;2.30;1.00;;;;;;;13.06;100.00;100289.59;5258734;28;20024;-80
2021/05/27 08:17:15;;;;;;;1.92;0.82;;;;;;;13.29;99.67;100281.44;5244495;28;20082;-79
2021/05/27 08:19:45;;;;;;;2.97;1.10;;;;;;;13.60;99.06;100286.78;5242374;28;20074;-80
2021/05/27 08:22:16;;;;;;;1.50;1.05;;;;;;;14.02;96.01;100278.41;5257232;28;20084;-81
2021/05/27 08:24:46;;;;;;;2.28;0.80;;;;;;;15.06;92.65;100282.94;5226848;28;20021;-80
2021/05/27 08:27:17;;;;;;;2.58;0.70;;;;;;;16.43;85.23;100277.09;5233161;28;20024;-81
2021/05/27 08:29:47;;;;;;;1.33;0.60;;;;;;;15.97;83.70;100268.56;5235410;28;20049;-79
2021/05/27 08:32:18;;;;;;;1.48;0.68;;;;;;;15.28;85.78;100280.72;5243645;28;20273;-81
2021/05/27 08:34:48;;;;;;;1.00;0.50;;;;;;;15.13;87.24;100276.38;5244521;28;20486;-81
2021/05/27 08:37:18;;;;;;;1.63;0.60;;;;;;;15.22;89.55;100277.59;5235891;28;20020;-80
2021/05/27 08:39:49;;;;;;;1.95;1.00;;;;;;;15.40;88.26;100282.63;5236329;28;20057;-80
2021/05/27 08:42:20;;;;;;;2.50;1.05;;;;;;;14.91;86.62;100283.81;5241397;28;20477;-77
2021/05/27 08:44:53;;;;;;;1.88;0.90;;;;;;;14.60;88.97;100279.53;5243841;28;20032;-81
2021/05/27 08:47:24;;;;;;;0.95;0.63;;;;;;;14.34;91.30;100285.41;5245309;28;20375;-78
2021/05/27 08:49:55;;;;;;;1.70;0.77;;;;;;;14.00;93.31;100285.50;5243675;28;20028;-81
2021/05/27 08:52:25;;;;;;;2.83;0.90;;;;;;;13.75;95.38;100291.22;5244814;28;20051;-78
2021/05/27 08:54:56;;;;;;;5.45;1.63;;;;;;;13.48;97.90;100303.19;5231951;28;20032;-78
2021/05/27 08:57:26;;;;;;;1.98;0.90;;;;;;;13.08;99.99;100305.28;5258794;28;20024;-79
2021/05/27 08:59:56;;;;;;;1.38;0.60;;;;;;;12.92;100.00;100309.56;5241406;28;20482;-79
2021/05/27 09:02:27;;;;;;;2.10;1.17;;;;;;;12.46;100.00;100317.94;5244035;28;20023;-80
2021/05/27 09:05:14;;;;;;;1.20;0.40;;;;;;;12.22;99.04;100319.09;5257384;28;20069;-79
2021/05/27 09:07:44;;;;;;;1.40;0.63;;;;;;;12.49;100.00;100323.03;5232843;28;20021;-78
2021/05/27 09:10:14;;;;;;;0.95;0.57;;;;;;;12.80;100.00;100320.66;5231626;28;20027;-80
2021/05/27 09:12:45;;;;;;;1.85;0.60;;;;;;;13.09;100.00;100325.34;5253883;28;20093;-80
2021/05/27 09:15:15;;;;;;;1.20;0.60;;;;;;;13.13;98.50;100324.25;5238410;28;20201;-79
2021/05/27 09:17:53;;;;;;;1.93;0.40;;;;;;;13.02;98.32;100324.81;5261546;28;20028;-79
2021/05/27 09:20:25;;;;;;;1.20;0.68;;;;;;;13.01;100.00;100330.09;5245234;28;20501;-80
2021/05/27 09:23:17;;;;;;;1.70;0.50;;;;;;;13.19;100.00;100332.69;5241123;28;20082;-77
2021/05/27 09:25:51;;;;;;;0.70;0.40;;;;;;;13.07;98.80;100338.53;5226284;28;20093;-79
2021/05/27 09:28:23;;;;;;;0.70;0.50;;;;;;;13.36;95.95;100335.31;5226855;28;20166;-81
2021/05/27 09:30:59;;;;;;;0.82;0.50;;;;;;;13.60;96.19;100341.09;5242276;28;20039;-81
2021/05/27 09:33:35;;;;;;;;;;;;;;;13.63;95.58;100352.28;5239934;28;20024;-80
2021/05/27 09:36:11;;;;;;;0.40;0.30;;;;;;;13.74;94.31;100347.31;5248725;28;19917;-80
2021/05/27 09:38:54;;;;;;;0.93;0.57;;;;;;;13.58;95.12;100346.41;5248821;28;20810;-80
2021/05/27 09:41:27;;;;;;;0.55;0.40;;;;;;;13.53;96.54;100351.06;5241621;28;20024;-81
2021/05/27 09:44:06;;;;;;;0.73;0.50;;;;;;;13.68;97.07;100349.41;5254769;28;20401;-81
2021/05/27 09:46:50;;;;;;;1.00;0.55;;;;;;;13.47;96.37;100368.88;5245789;28;20047;-80
2021/05/27 09:49:25;;;;;;;1.23;0.35;;;;;;;13.68;93.72;100362.53;5258486;28;20633;-80
2021/05/27 09:51:57;;;;;;;3.93;0.60;;;;;;;13.40;93.76;100359.63;5233921;28;20050;-80
2021/05/27 09:54:57;;;;;;;1.40;0.47;;;;;;;13.39;95.78;100364.03;5252414;28;20074;-81
2021/05/27 09:57:28;;;;;;;0.93;0.50;;;;;;;13.25;96.92;100368.28;5237774;28;20024;-80
2021/05/27 09:59:58;;;;;;;1.27;0.50;;;;;;;13.26;98.17;100367.34;5256241;28;20036;-80
2021/05/27 10:02:29;;;;;;;2.47;0.68;;;;;;;13.22;98.44;100373.69;5250844;28;20029;-80
2021/05/27 10:04:59;;;;;;;0.80;0.50;;;;;;;13.03;97.42;100367.63;5238997;28;20024;-80
2021/05/27 10:07:35;;;;;;;1.43;0.57;;;;;;;13.17;98.43;100360.78;5250511;28;20417;-81
2021/05/27 10:10:07;;;;;;;;;;;;;;;12.93;100.00;100369.00;5227344;28;20273;-80
2021/05/27 10:12:45;;;;;;;1.48;0.57;;;;;;;12.87;100.00;100369.28;5239590;28;19966;-81
2021/05/27 10:15:18;;;;;;;1.45;0.70;;;;;;;12.99;100.00;100377.44;5240944;28;20127;-80
2021/05/27 10:17:50;;;;;;;1.17;0.70;;;;;;;12.77;100.00;100378.50;5260166;28;20502;-80
2021/05/27 10:20:26;;;;;;;1.40;0.50;;;;;;;12.82;100.00;100379.09;5258833;28;20085;-81
2021/05/27 10:22:57;;;;;;;1.63;0.80;;;;;;;12.50;100.00;100387.63;5235865;28;20032;-80
2021/05/27 10:25:28;;;;;;;1.10;0.70;;;;;;;12.35;100.00;100377.88;5248285;28;20028;-81
2021/05/27 10:28:01;;;;;;;0.65;0.63;;;;;;;12.67;100.00;100384.25;5249027;28;20541;-79
2021/05/27 10:30:41;;;;;;;1.83;0.80;;;;;;;12.43;100.00;100385.41;5250083;28;20402;-78
2021/05/27 10:33:21;;;;;;;2.22;0.65;;;;;;;12.76;100.00;100384.66;5258254;28;20035;-81
2021/05/27 10:35:54;;;;;;;1.20;0.70;;;;;;;12.88;100.00;100389.34;5258529;28;20032;-79
2021/05/27 10:38:36;;;;;;;0.77;0.73;;;;;;;13.43;100.00;100383.09;5231744;28;20032;-80
2021/05/27 10:41:22;;;;;;;1.73;0.75;;;;;;;14.22;99.79;100380.72;5240300;28;20035;-80
2021/05/27 10:43:58;;;;;;;1.43;0.73;;;;;;;14.40;97.39;100374.47;5258131;28;20032;-81
2021/05/27 10:46:44;;;;;;;1.63;0.75;;;;;;;13.93;95.96;100378.75;5263227;28;20058;-80
2021/05/27 10:49:43;;;;;;;1.67;0.90;;;;;;;14.22;96.77;100375.47;5240152;28;20082;-80
2021/05/27 10:52:35;;;;;;;1.45;0.60;;;;;;;13.76;96.38;100371.72;5256048;28;20334;-80
2021/05/27 10:55:26;;;;;;;1.15;0.68;;;;;;;13.72;96.13;100390.38;5230711;28;20613;-80
2021/05/27 10:57:56;;;;;;;1.33;0.77;;;;;;;13.78;96.62;100395.28;5239263;28;20038;-79
2021/05/27 11:00:33;;;;;;;2.97;1.00;;;;;;;13.70;95.83;100398.31;5238857;28;20397;-79
2021/05/27 11:03:41;;;;;;;0.80;0.60;;;;;;;14.05;94.74;100384.19;5231959;28;20094;-79
2021/05/27 11:06:20;;;;;;;2.45;0.70;;;;;;;13.85;95.51;100400.16;5247174;28;20051;-80
2021/05/27 11:09:25;;;;;;;1.00;0.70;;;;;;;13.90;94.83;100405.19;5227134;28;20529;-80
2021/05/27 11:12:00;;;;;;;2.30;0.80;;;;;;;14.10;95.39;100397.94;5229109;28;20633;-80
2021/05/27 11:14:36;;;;;;;3.35;0.82;;;;;;;13.97;94.96;100393.41;5242079;28;20516;-81
2021/05/27 11:17:07;;;;;;;1.15;0.75;;;;;;;14.02;96.13;100404.53;5233810;28;20035;-79
2021/05/27 11:27:40;;;;;;;2.75;1.00;;;;;;;14.44;95.81;100402.31;5247629;28;20094;-81
2021/05/27 11:30:42;;;;;;;2.05;0.77;;;;;;;13.89;95.35;100400.84;5260864;28;20028;-80
2021/05/27 11:33:12;;;;;;;1.38;1.00;;;;;;;13.92;96.56;100403.31;5258234;28;20059;-80
2021/05/27 11:35:45;;;;;;;3.33;0.80;;;;;;;14.01;93.56;100413.34;5258846;28;20059;-80
2021/05/27 11:38:24;;;;;;;1.80;0.90;;;;;;;14.17;93.62;100409.00;5251950;28;20027;-80
2021/05/27 11:40:57;;;;;;;2.22;1.02;;;;;;;14.63;95.25;100403.00;5250817;28;20501;-80
2021/05/27 11:43:29;;;;;;;1.95;0.90;;;;;;;14.73;91.24;100412.09;5241114;28;20021;-80
2021/05/27 11:46:05;;;;;;;1.88;0.90;;;;;;;14.98;91.68;100413.28;5233603;28;20024;-80
2021/05/27 11:48:42;;;;;;;3.03;0.90;;;;;;;14.70;91.13;100414.88;5230856;28;20494;-80
2021/05/27 11:51:16;;;;;;;2.75;1.35;;;;;;;14.73;91.87;100412.09;5239130;28;20031;-80
2021/05/27 11:53:57;;;;;;;1.42;0.80;;;;;;;15.17;90.15;100411.31;5232582;28;20107;-80
2021/05/27 11:56:35;;;;;;;1.25;0.70;;;;;;;15.33;90.43;100418.25;5232279;28;20031;-80
2021/05/27 11:59:26;;;;;;;2.83;0.70;;;;;;;15.74;91.07;100414.06;5230349;28;20028;-80
2021/05/27 12:02:00;;;;;;;2.30;1.40;;;;;;;15.89;88.54;100412.31;5231850;28;20185;-80
2021/05/27 12:04:32;;;;;;;3.03;0.98;;;;;;;16.13;88.15;100411.69;5248271;28;20020;-80